createdAt,value
2023-02-05T00:02:28.991Z,99142.38
2023-02-05T00:05:30.552Z,99141.75
2023-02-05T00:08:33.673Z,99133.47
2023-02-05T00:11:35.389Z,99141.47
2023-02-05T00:14:36.915Z,99138.91
2023-02-05T00:17:38.383Z,99138.38
2023-02-05T00:20:39.968Z,99136.97
2023-02-05T00:23:41.934Z,99140.47
2023-02-05T00:26:43.567Z,99148.00
2023-02-05T00:29:44.980Z,99146.19
2023-02-05T00:32:46.452Z,99147.25
2023-02-05T00:35:47.937Z,99140.63
2023-02-05T00:38:49.694Z,99142.41
2023-02-05T00:41:51.257Z,99139.91
2023-02-05T00:44:52.745Z,99134.00
2023-02-05T00:47:54.186Z,99144.66
2023-02-05T00:50:55.812Z,99144.94
2023-02-05T00:53:57.354Z,99139.59
2023-02-05T00:56:59.019Z,99139.25
2023-02-05T01:00:00.619Z,99137.63
2023-02-05T01:03:02.153Z,99137.72
2023-02-05T01:06:03.665Z,99140.50
2023-02-05T01:09:05.217Z,99140.63
2023-02-05T01:12:06.826Z,99146.38
2023-02-05T01:15:11.974Z,99139.75
2023-02-05T01:18:14.230Z,99142.88
2023-02-05T01:21:15.753Z,99146.78
2023-02-05T01:24:18.300Z,99143.13
2023-02-05T01:27:19.770Z,99142.47
2023-02-05T01:30:22.092Z,99145.19
2023-02-05T01:33:23.621Z,99147.94
2023-02-05T01:36:25.348Z,99145.00
2023-02-05T01:39:26.860Z,99145.13
2023-02-05T01:42:31.678Z,99133.13
2023-02-05T01:45:50.724Z,99127.91
2023-02-05T01:48:57.840Z,99125.31
2023-02-05T01:52:06.565Z,99127.84
2023-02-05T01:55:08.668Z,99118.63
2023-02-05T01:58:10.535Z,99121.22
2023-02-05T02:01:11.994Z,99124.06
2023-02-05T02:04:18.746Z,99113.75
2023-02-05T02:07:23.747Z,99113.97
2023-02-05T02:10:26.383Z,99108.91
2023-02-05T02:13:30.055Z,99093.44
2023-02-05T02:16:32.772Z,99087.88
2023-02-05T02:19:43.395Z,99095.56
2023-02-05T02:23:22.382Z,99096.56
2023-02-05T02:26:42.562Z,99095.19
2023-02-05T02:30:09.123Z,99096.16
2023-02-05T02:33:31.868Z,99081.53
2023-02-05T02:37:00.024Z,99068.34
2023-02-05T02:40:26.600Z,99067.31
2023-02-05T02:43:54.549Z,99063.09
2023-02-05T02:46:59.021Z,99074.44
2023-02-05T02:50:19.742Z,99067.63
2023-02-05T02:53:26.606Z,99063.19
2023-02-05T02:56:32.714Z,99078.84
2023-02-05T02:59:38.207Z,99073.88
2023-02-05T03:02:42.302Z,99065.34
2023-02-05T03:05:45.884Z,99062.69
2023-02-05T03:08:56.810Z,99053.25
2023-02-05T03:11:59.947Z,99067.66
2023-02-05T03:15:01.601Z,99064.19
2023-02-05T03:18:04.265Z,99060.47
2023-02-05T03:21:13.427Z,99048.44
2023-02-05T03:24:15.017Z,99040.25
2023-02-05T03:27:16.606Z,99038.63
2023-02-05T03:30:19.094Z,99041.22
2023-02-05T03:33:58.597Z,99037.19
2023-02-05T03:37:06.633Z,99046.78
2023-02-05T03:40:43.018Z,99040.69
2023-02-05T03:44:08.894Z,99035.69
2023-02-05T03:47:37.533Z,99038.22
2023-02-05T03:50:46.824Z,99034.66
2023-02-05T03:54:01.722Z,99030.22
2023-02-05T03:57:36.669Z,99029.44
2023-02-05T04:00:39.735Z,99026.97
2023-02-05T04:03:41.680Z,99015.63
2023-02-05T04:06:47.342Z,99008.66
2023-02-05T04:09:48.919Z,99013.91
2023-02-05T04:12:50.407Z,99024.25
2023-02-05T04:15:53.110Z,99019.94
2023-02-05T04:18:54.659Z,99037.13
2023-02-05T04:21:56.473Z,99029.56
2023-02-05T04:24:57.967Z,99030.00
2023-02-05T04:28:00.495Z,99024.22
2023-02-05T04:31:02.666Z,99018.03
2023-02-05T04:34:06.961Z,99017.94
2023-02-05T04:37:08.536Z,99028.97
2023-02-05T04:40:10.331Z,99027.34
2023-02-05T04:43:11.769Z,99048.06
2023-02-05T04:46:13.273Z,99042.81
2023-02-05T04:49:15.016Z,99028.84
2023-02-05T04:52:16.421Z,99033.31
2023-02-05T04:55:17.889Z,99035.19
2023-02-05T04:58:21.011Z,99034.69
2023-02-05T05:01:23.478Z,99022.06
2023-02-05T05:04:25.032Z,99020.63
2023-02-05T05:07:26.600Z,99028.69
2023-02-05T05:10:28.143Z,99035.22
2023-02-05T05:13:29.622Z,99042.63
2023-02-05T05:16:31.251Z,99034.53
2023-02-05T05:19:33.097Z,99025.25
2023-02-05T05:22:34.554Z,99040.38
2023-02-05T05:25:45.513Z,99042.88
2023-02-05T05:28:47.033Z,99046.75
2023-02-05T05:31:51.447Z,99039.81
2023-02-05T05:34:53.006Z,99053.31
2023-02-05T05:37:57.135Z,99051.41
2023-02-05T05:41:17.434Z,99053.03
2023-02-05T05:44:18.853Z,99036.94
2023-02-05T05:47:20.497Z,99031.97
2023-02-05T05:50:21.987Z,99029.00
2023-02-05T05:53:23.841Z,99020.28
2023-02-05T05:56:25.341Z,99038.28
2023-02-05T05:59:26.835Z,99042.72
2023-02-05T06:02:28.364Z,99040.28
2023-02-05T06:05:30.471Z,99033.88
2023-02-05T06:08:32.523Z,99050.41
2023-02-05T06:11:34.089Z,99049.34
2023-02-05T06:14:35.608Z,99043.94
2023-02-05T06:17:37.198Z,99035.06
2023-02-05T06:20:38.679Z,99033.22
2023-02-05T06:23:40.112Z,99039.13
2023-02-05T06:26:41.565Z,99031.53
2023-02-05T06:29:43.121Z,99022.88
2023-02-05T06:32:44.543Z,99029.41
2023-02-05T06:35:46.545Z,99034.41
2023-02-05T06:38:47.970Z,99040.16
2023-02-05T06:41:49.458Z,99035.66
2023-02-05T06:44:50.868Z,99050.31
2023-02-05T06:47:55.879Z,99047.47
2023-02-05T06:50:57.367Z,99057.13
2023-02-05T06:54:00.306Z,99051.53
2023-02-05T06:57:01.819Z,99063.44
2023-02-05T07:00:05.952Z,99064.06
2023-02-05T07:03:07.374Z,99078.03
2023-02-05T07:06:08.836Z,99067.66
2023-02-05T07:09:10.481Z,99077.78
2023-02-05T07:12:12.059Z,99083.00
2023-02-05T07:15:13.613Z,99067.16
2023-02-05T07:18:15.275Z,99072.00
2023-02-05T07:21:17.146Z,99088.59
2023-02-05T07:24:18.700Z,99083.25
2023-02-05T07:27:20.206Z,99095.69
2023-02-05T07:30:21.837Z,99087.28
2023-02-05T07:33:23.303Z,99085.19
2023-02-05T07:36:24.795Z,99076.78
2023-02-05T07:39:28.049Z,99076.63
2023-02-05T07:42:31.670Z,99084.81
2023-02-05T07:45:36.175Z,99086.59
2023-02-05T07:48:38.070Z,99088.81
2023-02-05T07:51:39.514Z,99086.19
2023-02-05T07:54:41.218Z,99085.13
2023-02-05T07:57:42.718Z,99091.09
2023-02-05T08:00:44.352Z,99084.97
2023-02-05T08:03:45.853Z,99079.91
2023-02-05T08:06:47.365Z,99073.09
2023-02-05T08:09:48.856Z,99064.56
2023-02-05T08:12:50.345Z,99060.72
2023-02-05T08:15:52.031Z,99047.34
2023-02-05T08:18:53.622Z,99052.34
2023-02-05T08:21:55.111Z,99060.44
2023-02-05T08:24:56.544Z,99072.34
2023-02-05T08:27:58.053Z,99077.28
2023-02-05T08:30:59.635Z,99070.91
2023-02-05T08:34:01.745Z,99066.13
2023-02-05T08:37:03.407Z,99065.19
2023-02-05T08:40:05.075Z,99074.72
2023-02-05T08:43:08.460Z,99078.16
2023-02-05T08:46:10.880Z,99074.31
2023-02-05T08:49:12.424Z,99068.59
2023-02-05T08:52:14.149Z,99068.09
2023-02-05T08:55:18.183Z,99059.94
2023-02-05T08:58:19.672Z,99058.00
2023-02-05T09:01:21.646Z,99060.34
2023-02-05T09:04:23.529Z,99055.63
2023-02-05T09:07:25.131Z,99056.47
2023-02-05T09:10:26.580Z,99045.41
2023-02-05T09:13:28.617Z,99034.88
2023-02-05T09:16:30.108Z,99033.78
2023-02-05T09:19:34.948Z,99035.31
2023-02-05T09:22:36.657Z,99028.78
2023-02-05T09:25:39.595Z,99020.53
2023-02-05T09:28:41.090Z,99025.03
2023-02-05T09:31:42.639Z,99034.13
2023-02-05T09:34:44.218Z,99043.16
2023-02-05T09:37:45.719Z,99023.13
2023-02-05T09:41:01.632Z,99030.53
2023-02-05T09:44:21.023Z,99036.84
2023-02-05T09:47:44.554Z,99035.81
2023-02-05T09:50:46.092Z,99031.53
2023-02-05T09:53:53.771Z,99026.47
2023-02-05T09:57:00.590Z,99020.47
2023-02-05T10:00:05.311Z,99019.03
2023-02-05T10:03:13.796Z,99011.44
2023-02-05T10:06:41.091Z,98988.25
2023-02-05T10:10:04.152Z,98998.09
2023-02-05T10:13:10.550Z,98992.75
2023-02-05T10:16:20.767Z,99003.06
2023-02-05T10:19:47.100Z,99010.69
2023-02-05T10:23:05.166Z,99006.25
2023-02-05T10:26:09.802Z,99014.53
2023-02-05T10:29:17.248Z,99007.34
2023-02-05T10:32:25.242Z,99009.78
2023-02-05T10:35:37.033Z,99013.31
2023-02-05T10:38:44.470Z,99005.84
2023-02-05T10:42:01.776Z,99009.50
2023-02-05T10:45:25.957Z,99016.34
2023-02-05T10:48:43.780Z,99010.72
2023-02-05T10:51:46.190Z,99002.84
2023-02-05T10:54:48.072Z,98993.25
2023-02-05T10:57:49.618Z,98991.28
2023-02-05T11:00:51.745Z,98985.09
2023-02-05T11:03:58.691Z,98984.53
2023-02-05T11:07:05.973Z,98972.03
2023-02-05T11:10:23.518Z,98959.84
2023-02-05T11:13:25.919Z,98961.00
2023-02-05T11:16:38.610Z,98949.56
2023-02-05T11:19:40.311Z,98951.06
2023-02-05T11:22:41.794Z,98939.47
2023-02-05T11:26:01.576Z,98932.47
2023-02-05T11:29:19.704Z,98926.25
2023-02-05T11:32:38.592Z,98918.88
2023-02-05T11:35:40.238Z,98914.84
2023-02-05T11:38:51.611Z,98906.50
2023-02-05T11:41:56.519Z,98908.44
2023-02-05T11:45:01.885Z,98899.72
2023-02-05T11:48:33.249Z,98898.25
2023-02-05T11:51:34.689Z,98894.13
2023-02-05T11:54:37.371Z,98892.91
2023-02-05T11:57:39.236Z,98900.13
2023-02-05T12:00:50.807Z,98889.28
2023-02-05T12:04:18.149Z,98886.31
2023-02-05T12:07:21.634Z,98891.25
2023-02-05T12:10:43.149Z,98877.63
2023-02-05T12:14:02.153Z,98882.75
2023-02-05T12:17:15.680Z,98870.41
2023-02-05T12:20:27.829Z,98881.09
2023-02-05T12:23:52.387Z,98873.97
2023-02-05T12:27:07.449Z,98872.50
2023-02-05T12:30:35.856Z,98868.00
2023-02-05T12:33:59.162Z,98864.34
2023-02-05T12:37:31.696Z,98854.72
2023-02-05T12:40:43.968Z,98862.25
2023-02-05T12:43:47.658Z,98856.19
2023-02-05T12:47:10.093Z,98851.75
2023-02-05T12:50:45.372Z,98842.31
2023-02-05T12:54:09.362Z,98840.53
2023-02-05T12:57:18.868Z,98832.69
2023-02-05T13:00:27.133Z,98825.03
2023-02-05T13:03:43.586Z,98828.94
2023-02-05T13:06:53.240Z,98803.78
2023-02-05T13:10:05.518Z,98801.25
2023-02-05T13:13:13.935Z,98790.56
2023-02-05T13:16:18.183Z,98790.13
2023-02-05T13:19:25.959Z,98792.22
2023-02-05T13:22:54.668Z,98789.84
2023-02-05T13:26:08.550Z,98781.63
2023-02-05T13:29:13.822Z,98783.72
2023-02-05T13:32:16.560Z,98775.66
2023-02-05T13:35:20.053Z,98765.16
2023-02-05T13:38:54.063Z,98776.28
2023-02-05T13:42:13.071Z,98765.78
2023-02-05T13:45:37.206Z,98764.88
2023-02-05T13:49:14.535Z,98756.69
2023-02-05T13:52:50.820Z,98752.06
2023-02-05T13:56:36.801Z,98760.13
2023-02-05T13:59:43.421Z,98760.56
2023-02-05T14:02:53.355Z,98753.03
2023-02-05T14:05:56.991Z,98751.16
2023-02-05T14:09:03.314Z,98760.38
2023-02-05T14:12:08.843Z,98754.69
2023-02-05T14:15:16.548Z,98748.63
2023-02-05T14:18:47.050Z,98753.31
2023-02-05T14:21:57.101Z,98751.63
2023-02-05T14:24:58.786Z,98747.34
2023-02-05T14:28:00.691Z,98743.38
2023-02-05T14:31:04.221Z,98747.78
2023-02-05T14:34:28.883Z,98741.38
2023-02-05T14:37:39.712Z,98735.25
2023-02-05T14:40:41.564Z,98739.69
2023-02-05T14:43:55.920Z,98737.16
2023-02-05T14:47:20.681Z,98738.94
2023-02-05T14:50:24.160Z,98739.28
2023-02-05T14:53:29.695Z,98739.38
2023-02-05T14:56:40.475Z,98739.13
2023-02-05T14:59:53.479Z,98747.50
2023-02-05T15:03:12.485Z,98742.47
2023-02-05T15:06:16.626Z,98754.56
2023-02-05T15:09:20.957Z,98752.41
2023-02-05T15:12:58.100Z,98760.91
2023-02-05T15:16:11.509Z,98754.34
2023-02-05T15:19:17.054Z,98760.88
2023-02-05T15:22:34.355Z,98765.41
2023-02-05T15:25:40.202Z,98764.25
2023-02-05T15:28:56.335Z,98759.03
2023-02-05T15:32:03.385Z,98763.53
2023-02-05T15:35:21.374Z,98767.75
2023-02-05T15:38:48.261Z,98762.28
2023-02-05T15:41:53.035Z,98765.03
2023-02-05T15:44:54.797Z,98759.81
2023-02-05T15:48:22.572Z,98767.06
2023-02-05T15:51:42.364Z,98763.91
2023-02-05T15:54:43.825Z,98777.31
2023-02-05T15:57:45.671Z,98780.41
2023-02-05T16:00:49.730Z,98771.81
2023-02-05T16:03:51.372Z,98776.69
2023-02-05T16:06:52.945Z,98773.06
2023-02-05T16:09:58.238Z,98778.22
2023-02-05T16:13:04.762Z,98779.31
2023-02-05T16:16:15.253Z,98788.97
2023-02-05T16:19:22.459Z,98783.00
2023-02-05T16:22:55.348Z,98784.78
2023-02-05T16:26:03.149Z,98782.72
2023-02-05T16:29:11.735Z,98783.16
2023-02-05T16:32:30.638Z,98776.34
2023-02-05T16:35:42.433Z,98780.84
2023-02-05T16:38:44.058Z,98788.31
2023-02-05T16:41:45.816Z,98788.50
2023-02-05T16:44:48.680Z,98794.50
2023-02-05T16:48:28.802Z,98788.22
2023-02-05T16:51:35.349Z,98793.09
2023-02-05T16:54:38.735Z,98793.84
2023-02-05T16:57:40.433Z,98801.28
2023-02-05T17:00:42.034Z,98800.47
2023-02-05T17:03:49.139Z,98800.06
2023-02-05T17:06:52.495Z,98806.81
2023-02-05T17:10:25.246Z,98810.25
2023-02-05T17:13:36.488Z,98808.69
2023-02-05T17:16:42.401Z,98814.75
2023-02-05T17:19:44.380Z,98814.09
2023-02-05T17:23:15.793Z,98826.59
2023-02-05T17:26:18.066Z,98817.81
2023-02-05T17:29:20.110Z,98818.84
2023-02-05T17:32:22.591Z,98812.78
2023-02-05T17:35:27.068Z,98824.00
2023-02-05T17:38:28.582Z,98822.94
2023-02-05T17:41:54.068Z,98822.88
2023-02-05T17:44:56.027Z,98829.97
2023-02-05T17:47:57.529Z,98815.97
2023-02-05T17:50:59.251Z,98826.53
2023-02-05T17:54:02.202Z,98820.81
2023-02-05T17:57:15.473Z,98811.66
2023-02-05T18:00:20.975Z,98825.38
2023-02-05T18:03:22.426Z,98829.59
2023-02-05T18:06:23.901Z,98823.50
2023-02-05T18:09:25.320Z,98825.47
2023-02-05T18:12:26.977Z,98823.81
2023-02-05T18:15:32.418Z,98827.06
2023-02-05T18:18:36.283Z,98825.00
2023-02-05T18:21:37.829Z,98829.41
2023-02-05T18:24:39.328Z,98836.50
2023-02-05T18:27:40.982Z,98830.97
2023-02-05T18:30:42.973Z,98829.94
2023-02-05T18:33:44.763Z,98834.63
2023-02-05T18:36:56.500Z,98836.50
2023-02-05T18:39:58.189Z,98834.81
2023-02-05T18:43:00.395Z,98831.44
2023-02-05T18:46:14.310Z,98835.56
2023-02-05T18:49:15.744Z,98834.63
2023-02-05T18:52:18.509Z,98840.88
2023-02-05T18:55:22.548Z,98840.69
2023-02-05T18:58:24.772Z,98842.84
2023-02-05T19:01:29.064Z,98848.34
2023-02-05T19:04:32.948Z,98859.66
2023-02-05T19:07:34.777Z,98844.69
2023-02-05T19:10:37.349Z,98861.84
2023-02-05T19:13:39.577Z,98871.09
2023-02-05T19:16:41.858Z,98872.47
2023-02-05T19:19:47.454Z,98867.66
2023-02-05T19:22:52.834Z,98872.59
2023-02-05T19:25:54.258Z,98874.25
2023-02-05T19:28:59.312Z,98887.63
2023-02-05T19:32:00.802Z,98874.03
2023-02-05T19:35:03.855Z,98872.72
2023-02-05T19:38:05.528Z,98875.41
2023-02-05T19:41:08.637Z,98870.78
2023-02-05T19:44:10.208Z,98883.06
2023-02-05T19:47:12.780Z,98878.88
2023-02-05T19:50:14.277Z,98868.03
2023-02-05T19:53:16.735Z,98870.31
2023-02-05T19:56:21.657Z,98868.31
2023-02-05T19:59:23.309Z,98870.94
2023-02-05T20:02:25.843Z,98873.25
2023-02-05T20:05:28.656Z,98875.78
2023-02-05T20:08:30.179Z,98868.53
2023-02-05T20:11:31.850Z,98886.81
2023-02-05T20:14:33.306Z,98886.91
2023-02-05T20:17:34.788Z,98883.28
2023-02-05T20:20:40.252Z,98890.19
2023-02-05T20:23:41.984Z,98893.63
2023-02-05T20:26:44.715Z,98905.03
2023-02-05T20:30:04.891Z,98897.19
2023-02-05T20:33:06.376Z,98905.03
2023-02-05T20:36:10.639Z,98897.38
2023-02-05T20:39:12.124Z,98908.50
2023-02-05T20:42:15.085Z,98914.38
2023-02-05T20:45:16.706Z,98921.09
2023-02-05T20:48:18.207Z,98921.97
2023-02-05T20:51:22.718Z,98924.66
2023-02-05T20:54:24.638Z,98918.88
2023-02-05T20:57:26.183Z,98919.91
2023-02-05T21:00:27.892Z,98912.88
2023-02-05T21:03:29.413Z,98910.84
2023-02-05T21:06:36.906Z,98911.03
2023-02-05T21:09:38.354Z,98915.09
2023-02-05T21:12:39.921Z,98910.91
2023-02-05T21:15:41.428Z,98915.88
2023-02-05T21:18:47.759Z,98914.44
2023-02-05T21:21:52.460Z,98928.44
2023-02-05T21:24:54.052Z,98921.72
2023-02-05T21:27:55.672Z,98936.00
2023-02-05T21:31:09.319Z,98942.97
2023-02-05T21:34:13.587Z,98945.41
2023-02-05T21:37:14.989Z,98942.97
2023-02-05T21:43:53.150Z,98958.97
2023-02-05T21:46:55.309Z,98955.09
2023-02-05T21:49:56.757Z,98958.44
2023-02-05T21:52:58.344Z,98971.03
2023-02-05T21:56:02.284Z,98965.41
2023-02-05T21:59:04.118Z,98974.56
2023-02-05T22:02:09.309Z,98973.38
2023-02-05T22:05:13.393Z,98972.28
2023-02-05T22:08:14.933Z,98978.16
2023-02-05T22:11:20.811Z,98979.66
2023-02-05T22:14:22.602Z,98976.47
2023-02-05T22:17:24.517Z,98973.03
2023-02-05T22:20:26.093Z,98983.31
2023-02-05T22:23:27.619Z,98986.84
2023-02-05T22:26:38.723Z,98994.53
2023-02-05T22:29:40.568Z,99000.75
2023-02-05T22:32:42.145Z,99005.72
2023-02-05T22:35:43.569Z,99008.25
2023-02-05T22:38:45.077Z,99001.25
2023-02-05T22:41:46.524Z,99001.09
2023-02-05T22:44:47.954Z,99004.63
2023-02-05T22:47:49.438Z,99006.31
2023-02-05T22:50:50.968Z,99013.97
2023-02-05T22:53:53.671Z,99017.59
2023-02-05T22:56:55.147Z,99023.19
2023-02-05T22:59:59.031Z,99031.13
2023-02-05T23:03:01.216Z,99028.28
2023-02-05T23:06:08.946Z,99039.31
2023-02-05T23:09:17.179Z,99045.47
2023-02-05T23:12:18.687Z,99049.75
2023-02-05T23:15:20.154Z,99051.72
2023-02-05T23:18:21.577Z,99053.31
2023-02-05T23:21:25.992Z,99048.84
2023-02-05T23:24:27.562Z,99049.34
2023-02-05T23:27:31.543Z,99046.06
2023-02-05T23:30:33.049Z,99054.66
2023-02-05T23:33:35.842Z,99055.00
2023-02-05T23:36:37.584Z,99058.63
2023-02-05T23:39:39.009Z,99059.47
2023-02-05T23:42:40.659Z,99059.47
2023-02-05T23:45:42.402Z,99064.53
2023-02-05T23:48:44.262Z,99064.19
2023-02-05T23:51:45.770Z,99059.63
2023-02-05T23:54:47.291Z,99053.91
2023-02-05T23:57:49.349Z,99059.16
